Time;durP1;ratioP1;P1;durP2;ratioP2;P2;SDS_P1;SDS_P2;PMS_P1;PMS_P2;Temp;Humidity;BMP_temperature;BMP_pressure;BME280_temperature;BME280_humidity;BME280_pressure;Samples;Min_cycle;Max_cycle;Signal;HPM_P1;HPM_P2
2022/08/13 00:02:08;;;;;;;3.20;2.80;;;16.40;94.00;;;;;;5031270;28;20516;-66
2022/08/13 00:04:35;;;;;;;3.30;2.13;;;16.50;93.90;;;;;;5031371;28;20449;-66
2022/08/13 00:07:06;;;;;;;3.90;2.90;;;16.50;93.90;;;;;;5031279;28;20839;-66
2022/08/13 00:09:34;;;;;;;6.00;2.90;;;16.50;94.20;;;;;;5031287;28;20452;-65
2022/08/13 00:14:47;;;;;;;5.93;3.00;;;16.50;94.20;;;;;;5030772;28;20400;-65
2022/08/13 00:17:15;;;;;;;4.50;3.17;;;16.50;94.60;;;;;;5030999;28;20473;-66
2022/08/13 00:19:45;;;;;;;5.33;3.07;;;16.40;95.40;;;;;;5031087;28;20453;-66
2022/08/13 00:22:18;;;;;;;5.80;3.50;;;16.30;96.80;;;;;;5030762;28;20489;-66
2022/08/13 00:24:45;;;;;;;4.23;3.50;;;16.20;97.80;;;;;;5029796;28;20459;-66
2022/08/13 00:27:12;;;;;;;4.40;2.80;;;16.20;97.10;;;;;;5030559;28;20480;-66
2022/08/13 00:29:38;;;;;;;5.73;3.07;;;16.00;97.20;;;;;;5031053;28;20451;-66
2022/08/13 00:32:07;;;;;;;3.80;2.83;;;16.00;96.70;;;;;;5030721;28;20441;-66
2022/08/13 00:34:34;;;;;;;3.83;2.63;;;16.00;97.70;;;;;;5030535;28;20522;-66
2022/08/13 00:37:01;;;;;;;4.60;3.13;;;16.00;97.60;;;;;;5030639;28;20953;-66
2022/08/13 00:39:28;;;;;;;5.07;3.37;;;16.00;97.30;;;;;;5030576;28;20448;-65
2022/08/13 00:41:55;;;;;;;3.37;2.73;;;16.20;97.30;;;;;;5030596;28;20488;-66
2022/08/13 00:44:22;;;;;;;6.00;3.03;;;16.30;97.40;;;;;;5030631;28;20449;-66
2022/08/13 00:48:41;;;;;;;3.73;3.03;;;16.30;97.30;;;;;;5030246;28;20526;-65
2022/08/13 00:49:36;;;;;;;4.60;3.10;;;16.20;97.60;;;;;;5030390;28;20532;-66
2022/08/13 00:52:04;;;;;;;3.40;2.90;;;16.20;98.40;;;;;;5030276;28;20445;-64
2022/08/13 00:54:31;;;;;;;6.90;3.60;;;16.20;98.90;;;;;;5030231;28;20463;-67
2022/08/13 00:56:59;;;;;;;3.10;2.80;;;16.20;99.00;;;;;;5030118;28;20475;-66
2022/08/13 00:59:26;;;;;;;3.00;2.40;;;16.10;99.90;;;;;;5030248;28;21225;-66
2022/08/13 01:01:53;;;;;;;3.30;2.77;;;16.00;99.90;;;;;;5030150;28;20488;-67
2022/08/13 01:04:21;;;;;;;2.87;2.63;;;15.90;99.90;;;;;;5030196;28;20451;-66
2022/08/13 01:06:50;;;;;;;5.60;2.57;;;15.80;99.90;;;;;;5029716;28;20472;-66
2022/08/13 01:09:17;;;;;;;6.27;2.87;;;15.60;99.90;;;;;;5030334;28;20452;-67
2022/08/13 01:11:45;;;;;;;4.10;3.00;;;15.60;99.90;;;;;;5030075;28;20440;-67
2022/08/13 01:14:12;;;;;;;4.13;3.20;;;15.50;99.90;;;;;;5030235;28;20464;-66
2022/08/13 01:16:39;;;;;;;4.13;2.70;;;15.50;99.90;;;;;;5029641;28;20555;-67
2022/08/13 01:19:09;;;;;;;3.90;3.37;;;15.50;99.90;;;;;;5029883;28;20939;-67
2022/08/13 01:21:39;;;;;;;5.83;3.00;;;15.50;99.90;;;;;;5030110;28;20858;-66
2022/08/13 01:24:10;;;;;;;4.77;3.70;;;15.50;99.90;;;;;;5030081;28;20445;-66
2022/08/13 01:26:37;;;;;;;4.80;2.70;;;15.40;99.90;;;;;;5029482;28;20492;-67
2022/08/13 01:29:05;;;;;;;3.87;3.10;;;15.30;99.90;;;;;;5029832;28;20827;-66
2022/08/13 01:31:34;;;;;;;7.10;3.10;;;15.30;99.90;;;;;;5029601;28;21021;-65
2022/08/13 01:34:03;;;;;;;4.13;2.93;;;15.20;99.90;;;;;;5030027;28;20453;-68
2022/08/13 01:36:30;;;;;;;4.63;3.60;;;15.20;99.90;;;;;;5029210;28;21134;-68
2022/08/13 01:39:01;;;;;;;3.60;3.17;;;15.20;99.90;;;;;;5029721;28;20973;-68
2022/08/13 01:41:28;;;;;;;4.50;3.30;;;15.20;99.90;;;;;;5029633;28;20484;-68
2022/08/13 01:44:00;;;;;;;3.53;3.23;;;15.10;99.90;;;;;;5029703;28;20445;-68
2022/08/13 01:50:28;;;;;;;3.33;2.90;;;15.20;99.90;;;;;;5029523;28;20483;-68
2022/08/13 01:51:58;;;;;;;3.57;2.90;;;15.20;99.90;;;;;;5029753;28;20428;-68
2022/08/13 01:54:27;;;;;;;3.90;2.80;;;15.10;99.90;;;;;;5029396;28;20961;-66
2022/08/13 01:56:57;;;;;;;3.40;3.10;;;15.10;99.90;;;;;;5029836;28;20465;-68
2022/08/13 01:59:24;;;;;;;3.50;3.10;;;15.10;99.90;;;;;;5029756;28;20947;-67
2022/08/13 02:01:51;;;;;;;3.67;3.20;;;15.00;99.90;;;;;;5029877;28;20484;-68
2022/08/13 02:04:19;;;;;;;3.43;3.13;;;14.90;99.90;;;;;;5030053;28;20449;-67
2022/08/13 02:06:45;;;;;;;3.23;2.93;;;14.90;99.90;;;;;;5029542;28;20898;-68
2022/08/13 02:09:14;;;;;;;3.40;3.10;;;14.80;99.90;;;;;;5029622;28;20456;-68
2022/08/13 02:11:42;;;;;;;4.37;3.20;;;14.80;99.90;;;;;;5029718;28;20448;-68
2022/08/13 02:14:09;;;;;;;3.90;3.40;;;14.80;99.90;;;;;;5029577;28;20453;-68
2022/08/13 02:16:38;;;;;;;2.87;2.57;;;14.70;99.90;;;;;;5029148;28;20982;-68
2022/08/13 02:19:08;;;;;;;3.33;2.83;;;14.80;99.90;;;;;;5029545;28;20457;-68
2022/08/13 02:21:36;;;;;;;4.87;3.57;;;14.80;99.90;;;;;;5029325;28;20476;-68
2022/08/13 02:24:08;;;;;;;3.83;2.80;;;14.70;99.90;;;;;;5029511;28;20552;-67
2022/08/13 02:26:35;;;;;;;8.00;3.47;;;14.70;99.90;;;;;;5029004;28;20564;-68
2022/08/13 02:29:05;;;;;;;3.37;3.07;;;14.80;99.90;;;;;;5029377;28;20467;-67
2022/08/13 02:31:32;;;;;;;3.53;3.23;;;14.80;99.90;;;;;;5029294;28;20449;-67
2022/08/13 02:33:59;;;;;;;3.30;3.00;;;14.70;99.90;;;;;;5029479;28;20979;-67
2022/08/13 02:36:26;;;;;;;4.13;3.10;;;14.70;99.90;;;;;;5029229;28;20803;-68
2022/08/13 02:38:55;;;;;;;3.47;3.17;;;14.60;99.90;;;;;;5029386;28;20456;-68
2022/08/13 02:41:42;;;;;;;4.33;3.20;;;14.60;99.90;;;;;;5029317;28;20480;-68
2022/08/13 02:44:12;;;;;;;4.80;3.43;;;14.60;99.90;;;;;;5029281;28;20490;-68
2022/08/13 02:46:39;;;;;;;3.43;3.07;;;14.40;99.90;;;;;;5028740;28;20500;-68
2022/08/13 02:49:06;;;;;;;3.80;3.50;;;14.40;99.90;;;;;;5032191;28;20452;-68
2022/08/13 02:51:33;;;;;;;3.53;3.17;;;14.40;99.90;;;;;;5032828;28;20807;-67
2022/08/13 02:54:01;;;;;;;3.77;3.37;;;14.30;99.90;;;;;;5032528;28;20943;-68
2022/08/13 02:56:28;;;;;;;5.00;3.67;;;14.20;99.90;;;;;;5032484;28;20830;-68
2022/08/13 02:58:55;;;;;;;4.00;3.60;;;14.10;99.90;;;;;;5032525;28;20453;-68
2022/08/13 03:01:25;;;;;;;5.30;3.93;;;14.10;99.90;;;;;;5032389;28;20512;-68
2022/08/13 03:03:52;;;;;;;6.67;3.60;;;14.00;99.90;;;;;;5032557;28;20860;-67
2022/08/13 03:06:19;;;;;;;4.43;3.57;;;14.10;99.90;;;;;;5032013;28;20468;-68
2022/08/13 03:08:49;;;;;;;6.03;3.70;;;14.10;99.90;;;;;;5032475;28;20453;-69
2022/08/13 03:11:16;;;;;;;4.30;3.43;;;14.10;99.90;;;;;;5032437;28;20445;-68
2022/08/13 03:13:47;;;;;;;5.90;3.10;;;14.10;99.90;;;;;;5032138;28;20816;-68
2022/08/13 03:16:16;;;;;;;3.77;3.47;;;14.20;99.90;;;;;;5031845;28;20465;-68
2022/08/13 03:18:45;;;;;;;6.53;4.10;;;14.20;99.90;;;;;;5032241;28;20447;-68
2022/08/13 03:21:18;;;;;;;4.03;3.50;;;14.20;99.90;;;;;;5032091;28;20464;-68
2022/08/13 03:23:46;;;;;;;4.30;3.70;;;14.10;99.90;;;;;;5032079;28;20449;-67
2022/08/13 03:26:13;;;;;;;5.50;4.03;;;14.00;99.90;;;;;;5031537;28;20477;-67
2022/08/13 03:28:41;;;;;;;4.23;3.30;;;14.00;99.90;;;;;;5032217;28;20877;-67
2022/08/13 03:31:08;;;;;;;4.43;3.20;;;13.90;99.90;;;;;;5032323;28;20467;-67
2022/08/13 03:33:36;;;;;;;5.40;4.20;;;13.90;99.90;;;;;;5031893;28;20455;-67
2022/08/13 03:36:07;;;;;;;3.77;3.37;;;13.80;99.90;;;;;;5031607;28;20543;-67
2022/08/13 03:38:34;;;;;;;3.60;3.30;;;13.80;99.90;;;;;;5031737;28;20535;-67
2022/08/13 03:41:11;;;;;;;4.33;3.70;;;13.80;99.90;;;;;;5031772;28;20441;-67
2022/08/13 03:43:42;;;;;;;5.07;3.73;;;13.80;99.90;;;;;;5031913;28;20445;-67
2022/08/13 03:46:09;;;;;;;4.00;3.60;;;13.90;99.90;;;;;;5031457;28;20523;-67
2022/08/13 03:48:36;;;;;;;3.97;3.33;;;13.90;99.90;;;;;;5031781;28;20437;-67
2022/08/13 03:51:06;;;;;;;3.80;3.17;;;13.90;99.90;;;;;;5031671;28;20440;-68
2022/08/13 03:53:33;;;;;;;4.50;3.90;;;13.80;99.90;;;;;;5031400;28;20551;-67
2022/08/13 03:56:01;;;;;;;4.43;4.03;;;13.80;99.90;;;;;;5031404;28;20548;-67
2022/08/13 03:58:29;;;;;;;4.27;3.60;;;13.80;99.90;;;;;;5031565;28;20812;-68
2022/08/13 04:00:57;;;;;;;6.13;3.27;;;13.90;99.90;;;;;;5031438;28;20576;-67
2022/08/13 04:03:28;;;;;;;4.73;4.27;;;13.80;99.90;;;;;;5031341;28;20494;-67
2022/08/13 04:06:03;;;;;;;4.70;3.47;;;13.80;99.90;;;;;;5030895;28;20481;-67
2022/08/13 04:08:34;;;;;;;3.80;3.30;;;13.80;99.90;;;;;;5031430;28;20947;-67
2022/08/13 04:11:04;;;;;;;4.10;3.70;;;13.70;99.90;;;;;;5031837;28;20455;-68
2022/08/13 04:13:36;;;;;;;4.63;3.80;;;13.80;99.90;;;;;;5031607;28;20515;-68
2022/08/13 04:16:04;;;;;;;10.20;4.47;;;13.80;99.90;;;;;;5031182;28;20453;-67
2022/08/13 04:18:35;;;;;;;4.40;4.00;;;13.60;99.90;;;;;;5031297;28;20543;-68
2022/08/13 04:21:03;;;;;;;7.27;3.80;;;13.60;99.90;;;;;;5031480;28;20449;-67
2022/08/13 04:23:33;;;;;;;5.20;3.20;;;13.60;99.90;;;;;;5031029;28;20480;-68
2022/08/13 04:26:00;;;;;;;4.43;3.67;;;13.60;99.90;;;;;;5030611;28;20530;-68
2022/08/13 04:28:27;;;;;;;4.00;3.27;;;13.70;99.90;;;;;;5031054;28;20474;-68
2022/08/13 04:30:54;;;;;;;6.53;3.50;;;13.70;99.90;;;;;;5030769;28;20445;-68
2022/08/13 04:33:21;;;;;;;4.03;3.40;;;13.70;99.90;;;;;;5030952;28;20457;-68
2022/08/13 04:35:48;;;;;;;4.83;3.20;;;13.60;99.90;;;;;;5030495;28;20455;-68
2022/08/13 04:38:16;;;;;;;3.50;3.20;;;13.60;99.90;;;;;;5030676;28;20445;-67
2022/08/13 04:40:46;;;;;;;4.33;3.63;;;13.60;99.90;;;;;;5030611;28;20824;-67
2022/08/13 04:43:14;;;;;;;4.43;3.70;;;13.60;99.90;;;;;;5030441;28;20480;-68
2022/08/13 04:45:42;;;;;;;4.83;3.73;;;13.60;99.90;;;;;;5030458;28;20449;-67
2022/08/13 04:48:12;;;;;;;4.87;4.27;;;13.50;99.90;;;;;;5030729;28;20468;-67
2022/08/13 04:50:41;;;;;;;5.00;4.50;;;13.50;99.90;;;;;;5030500;28;20516;-67
2022/08/13 04:53:09;;;;;;;4.30;3.90;;;13.50;99.90;;;;;;5030300;28;20440;-67
2022/08/13 04:55:38;;;;;;;4.60;3.87;;;13.50;99.90;;;;;;5030026;28;20453;-69
2022/08/13 04:58:08;;;;;;;4.40;3.73;;;13.50;99.90;;;;;;5030477;28;20461;-68
2022/08/13 05:00:35;;;;;;;6.77;3.83;;;13.70;99.90;;;;;;5030577;28;20684;-68
2022/08/13 05:03:09;;;;;;;6.70;4.23;;;13.80;99.90;;;;;;5030200;28;20872;-68
2022/08/13 05:05:36;;;;;;;4.70;4.20;;;13.80;99.90;;;;;;5029980;28;20453;-67
2022/08/13 05:08:04;;;;;;;9.17;5.30;;;13.90;99.90;;;;;;5030478;28;21001;-69
2022/08/13 05:10:31;;;;;;;5.90;4.23;;;14.00;99.90;;;;;;5029820;28;20452;-68
2022/08/13 05:13:01;;;;;;;3.90;3.60;;;14.00;99.90;;;;;;5030366;28;20445;-68
2022/08/13 05:15:29;;;;;;;4.47;4.00;;;14.00;99.90;;;;;;5029947;28;20460;-68
2022/08/13 05:17:56;;;;;;;4.37;3.97;;;14.10;99.90;;;;;;5030032;28;20465;-67
2022/08/13 05:20:23;;;;;;;10.43;4.80;;;14.20;99.90;;;;;;5029971;28;20440;-69
2022/08/13 05:22:50;;;;;;;7.00;4.80;;;14.30;99.90;;;;;;5029955;28;20504;-68
2022/08/13 05:25:18;;;;;;;4.67;4.27;;;14.40;99.90;;;;;;5029890;28;20457;-68
2022/08/13 05:27:45;;;;;;;5.73;5.00;;;14.40;99.90;;;;;;5029795;28;20512;-67
2022/08/13 05:30:13;;;;;;;7.07;4.10;;;14.40;99.90;;;;;;5029974;28;20952;-68
2022/08/13 05:32:41;;;;;;;5.53;4.53;;;14.50;99.90;;;;;;5029874;28;20453;-67
2022/08/13 05:35:11;;;;;;;5.17;4.67;;;14.50;99.90;;;;;;5029444;28;20449;-68
2022/08/13 05:37:38;;;;;;;6.03;4.60;;;14.50;99.90;;;;;;5029633;28;20469;-68
2022/08/13 05:40:06;;;;;;;5.90;4.83;;;14.70;99.90;;;;;;5029899;28;20445;-67
2022/08/13 05:42:39;;;;;;;8.47;4.90;;;14.70;99.90;;;;;;5029805;28;20481;-67
2022/08/13 05:45:07;;;;;;;5.10;4.60;;;14.70;99.90;;;;;;5029594;28;20448;-67
2022/08/13 05:47:35;;;;;;;6.07;5.00;;;14.80;99.90;;;;;;5029663;28;20475;-67
2022/08/13 05:50:08;;;;;;;5.70;4.77;;;14.80;99.90;;;;;;5029481;28;20444;-67
2022/08/13 05:52:35;;;;;;;4.67;4.27;;;14.90;99.90;;;;;;5029551;28;20445;-67
2022/08/13 05:55:05;;;;;;;8.40;5.00;;;15.00;99.90;;;;;;5029232;28;20492;-67
2022/08/13 05:57:31;;;;;;;6.00;5.40;;;15.20;99.90;;;;;;5029552;28;20469;-67
2022/08/13 06:05:28;;;;;;;5.07;4.57;;;15.60;99.90;;;;;;5029195;28;20436;-67
2022/08/13 06:07:57;;;;;;;5.03;4.53;;;15.60;99.90;;;;;;5029411;28;20476;-67
2022/08/13 06:10:25;;;;;;;5.50;5.00;;;15.70;99.90;;;;;;5029467;28;20502;-67
2022/08/13 06:12:52;;;;;;;5.03;4.57;;;15.90;99.90;;;;;;5029294;28;20449;-67
2022/08/13 06:15:22;;;;;;;5.67;4.20;;;15.80;99.90;;;;;;5029334;28;20452;-67
2022/08/13 06:17:50;;;;;;;5.03;4.30;;;16.00;99.90;;;;;;5029606;28;20836;-69
2022/08/13 06:20:18;;;;;;;6.20;4.50;;;16.10;99.90;;;;;;5029497;28;20459;-66
2022/08/13 06:22:52;;;;;;;5.10;4.60;;;16.30;99.90;;;;;;5030637;28;20483;-68
2022/08/13 06:25:19;;;;;;;5.10;4.67;;;16.40;99.90;;;;;;5032977;28;20876;-66
2022/08/13 06:27:46;;;;;;;4.40;4.00;;;16.50;99.90;;;;;;5033472;28;20480;-67
2022/08/13 06:30:18;;;;;;;4.80;4.40;;;16.60;99.90;;;;;;5033590;28;20492;-67
2022/08/13 06:32:45;;;;;;;4.40;4.00;;;16.70;99.90;;;;;;5033342;28;21219;-67
2022/08/13 06:35:13;;;;;;;8.73;4.00;;;16.80;99.90;;;;;;5032764;28;20639;-67
2022/08/13 06:37:42;;;;;;;6.63;4.30;;;17.00;99.90;;;;;;5033037;28;20500;-67
2022/08/13 06:40:11;;;;;;;4.67;4.27;;;17.10;99.90;;;;;;5032891;28;20445;-67
2022/08/13 06:42:44;;;;;;;3.73;3.20;;;17.20;99.90;;;;;;5032965;28;20484;-67
2022/08/13 06:45:11;;;;;;;4.30;3.83;;;17.30;99.90;;;;;;5032647;28;20448;-68
2022/08/13 06:47:39;;;;;;;4.53;3.70;;;17.50;99.90;;;;;;5032801;28;20472;-68
2022/08/13 06:50:09;;;;;;;4.10;3.70;;;17.70;99.90;;;;;;5032708;28;20453;-67
2022/08/13 06:52:37;;;;;;;4.07;3.67;;;17.90;99.90;;;;;;5032614;28;20473;-67
2022/08/13 06:55:06;;;;;;;4.77;3.83;;;18.00;99.90;;;;;;5032488;28;20482;-68
2022/08/13 06:57:36;;;;;;;7.23;3.90;;;18.20;99.90;;;;;;5032484;28;20563;-68
2022/08/13 07:00:04;;;;;;;3.87;3.47;;;18.30;99.90;;;;;;5032685;28;20453;-67
2022/08/13 07:02:35;;;;;;;5.07;3.60;;;18.50;99.90;;;;;;5032471;28;20515;-68
2022/08/13 07:05:02;;;;;;;3.70;3.40;;;18.70;99.90;;;;;;5032108;28;20459;-67
2022/08/13 07:07:29;;;;;;;5.10;3.50;;;18.70;99.90;;;;;;5032580;28;20464;-68
2022/08/13 07:09:57;;;;;;;4.30;3.43;;;18.90;99.90;;;;;;5032772;28;20457;-68
2022/08/13 07:12:24;;;;;;;4.57;3.50;;;19.00;99.90;;;;;;5032645;28;20453;-67
2022/08/13 07:14:53;;;;;;;4.07;3.40;;;19.00;99.90;;;;;;5032173;28;20472;-66
2022/08/13 07:17:21;;;;;;;4.53;3.77;;;19.10;99.90;;;;;;5034277;28;20567;-67
2022/08/13 07:19:48;;;;;;;4.13;3.13;;;19.20;99.90;;;;;;5032126;28;20449;-68
2022/08/13 07:22:15;;;;;;;4.50;3.97;;;19.30;99.90;;;;;;5032475;28;20449;-67
2022/08/13 07:24:49;;;;;;;6.80;3.40;;;19.50;99.90;;;;;;5032267;28;20459;-68
2022/08/13 07:27:16;;;;;;;4.10;3.70;;;19.60;99.90;;;;;;5031962;28;20473;-68
2022/08/13 07:29:46;;;;;;;4.50;3.33;;;19.80;99.90;;;;;;5032052;28;20449;-67
2022/08/13 07:32:14;;;;;;;3.77;3.47;;;20.00;99.90;;;;;;5032160;28;20464;-68
2022/08/13 07:34:41;;;;;;;5.33;3.60;;;20.20;99.90;;;;;;5031163;28;20947;-68
2022/08/13 07:37:08;;;;;;;13.97;3.90;;;20.30;99.90;;;;;;5031924;28;20465;-68
2022/08/13 07:39:35;;;;;;;5.50;3.40;;;20.40;99.40;;;;;;5031857;28;21030;-68
2022/08/13 07:42:02;;;;;;;6.20;3.53;;;20.50;99.10;;;;;;5031899;28;20861;-67
2022/08/13 07:44:29;;;;;;;4.03;3.50;;;20.60;99.30;;;;;;5031308;28;20567;-67
2022/08/13 07:46:59;;;;;;;3.40;3.10;;;20.70;99.90;;;;;;5031642;28;20468;-67
2022/08/13 07:49:28;;;;;;;3.30;3.00;;;20.70;98.70;;;;;;5031753;28;20456;-68
2022/08/13 07:51:55;;;;;;;3.77;2.93;;;20.80;99.00;;;;;;5031695;28;20445;-68
2022/08/13 07:54:22;;;;;;;4.30;3.83;;;20.90;98.90;;;;;;5031705;28;20453;-67
2022/08/13 07:56:54;;;;;;;3.73;3.20;;;21.00;98.10;;;;;;5031461;28;20981;-67
2022/08/13 07:59:22;;;;;;;3.30;3.00;;;21.20;97.30;;;;;;5031819;28;20889;-66
2022/08/13 08:01:50;;;;;;;3.72;2.90;;;21.30;97.40;;;;;;5031147;28;20503;-67
2022/08/13 08:04:19;;;;;;;3.60;2.97;;;21.50;97.10;;;;;;5031469;28;20265;-66
2022/08/13 08:06:49;;;;;;;3.80;3.20;;;21.70;96.00;;;;;;5031150;28;20508;-67
2022/08/13 08:09:18;;;;;;;3.97;3.33;;;21.80;96.20;;;;;;5031368;28;20455;-67
2022/08/13 08:14:30;;;;;;;3.33;2.90;;;22.00;94.90;;;;;;5030937;28;20785;-67
2022/08/13 08:16:59;;;;;;;6.70;3.00;;;22.20;94.20;;;;;;5031108;28;20835;-66
2022/08/13 08:19:27;;;;;;;3.10;2.80;;;22.20;93.90;;;;;;5031064;28;20507;-67
2022/08/13 08:21:58;;;;;;;3.60;2.83;;;22.30;94.40;;;;;;5030963;28;20543;-67
2022/08/13 08:24:25;;;;;;;3.10;2.80;;;22.30;93.80;;;;;;5031061;28;20512;-66
2022/08/13 08:26:55;;;;;;;3.40;3.10;;;22.30;95.30;;;;;;5030874;28;20477;-67
2022/08/13 08:29:22;;;;;;;3.20;2.87;;;22.30;93.90;;;;;;5031027;28;20520;-67
2022/08/13 08:31:50;;;;;;;5.17;2.97;;;22.50;93.00;;;;;;5030892;28;20452;-67
2022/08/13 08:34:18;;;;;;;4.13;3.73;;;22.70;93.10;;;;;;5030844;28;20452;-66
2022/08/13 08:36:45;;;;;;;4.13;3.20;;;22.80;93.30;;;;;;5030301;28;21343;-67
2022/08/13 08:44:57;;;;;;;6.23;3.30;;;23.40;92.10;;;;;;5025987;28;20485;-67
2022/08/13 08:47:29;;;;;;;3.87;2.80;;;23.40;91.30;;;;;;5030673;28;20469;-67
2022/08/13 08:49:57;;;;;;;3.27;2.67;;;23.40;92.00;;;;;;5030854;28;20452;-67
2022/08/13 08:53:19;;;;;;;5.03;3.40;;;23.60;92.20;;;;;;5030699;28;20445;-67
2022/08/13 08:55:16;;;;;;;5.70;2.67;;;23.60;90.60;;;;;;5029998;28;20445;-67
2022/08/13 08:57:45;;;;;;;3.10;2.80;;;23.80;91.20;;;;;;5030369;28;20478;-67
2022/08/13 09:00:15;;;;;;;5.70;3.13;;;23.90;90.00;;;;;;5030580;28;20457;-67
2022/08/13 09:02:42;;;;;;;3.90;3.10;;;23.90;89.40;;;;;;5030271;28;20532;-67
2022/08/13 09:05:13;;;;;;;3.50;3.20;;;23.90;88.70;;;;;;5030002;28;20449;-68
2022/08/13 09:07:41;;;;;;;3.80;3.40;;;24.00;90.80;;;;;;5030306;28;20473;-67
2022/08/13 09:10:10;;;;;;;3.80;3.47;;;24.10;88.70;;;;;;5030265;28;20453;-67
2022/08/13 09:12:42;;;;;;;3.37;3.07;;;24.30;87.80;;;;;;5030237;28;21028;-67
2022/08/13 09:15:11;;;;;;;2.93;2.73;;;24.50;86.00;;;;;;5029889;28;20499;-67
2022/08/13 09:17:38;;;;;;;4.20;3.40;;;24.50;84.90;;;;;;5030119;28;20473;-67
2022/08/13 09:20:10;;;;;;;3.13;2.83;;;24.50;85.80;;;;;;5030082;28;20456;-68
2022/08/13 09:22:40;;;;;;;3.80;3.40;;;24.50;84.70;;;;;;5029861;28;20877;-67
2022/08/13 09:25:07;;;;;;;4.23;3.07;;;24.50;85.00;;;;;;5029767;28;20489;-67
2022/08/13 09:27:35;;;;;;;3.27;2.77;;;24.60;86.10;;;;;;5029844;28;20484;-68
2022/08/13 09:30:05;;;;;;;2.90;2.50;;;24.90;86.90;;;;;;5030079;28;20453;-67
2022/08/13 09:32:32;;;;;;;4.57;2.80;;;25.10;84.00;;;;;;5030029;28;20452;-68
2022/08/13 09:35:00;;;;;;;4.60;2.80;;;25.30;84.40;;;;;;5029502;28;20871;-67
2022/08/13 09:37:29;;;;;;;5.13;2.97;;;25.40;82.00;;;;;;5029983;28;20957;-67
2022/08/13 09:40:02;;;;;;;3.90;3.00;;;25.30;80.80;;;;;;5029964;28;20532;-67
2022/08/13 09:42:33;;;;;;;3.70;2.43;;;25.30;81.60;;;;;;5029841;28;20503;-67
2022/08/13 09:45:00;;;;;;;4.07;3.27;;;25.80;82.30;;;;;;5029210;28;20496;-68
2022/08/13 09:47:29;;;;;;;3.70;2.60;;;26.70;80.70;;;;;;5028471;28;20508;-68
2022/08/13 09:49:56;;;;;;;2.73;2.30;;;27.90;76.00;;;;;;5029159;28;20484;-68
2022/08/13 09:52:24;;;;;;;4.03;2.57;;;28.80;69.60;;;;;;5028418;28;20453;-68
2022/08/13 09:54:51;;;;;;;4.93;2.20;;;29.30;67.30;;;;;;5029282;28;20456;-67
2022/08/13 09:57:20;;;;;;;4.50;2.80;;;29.20;62.80;;;;;;5031000;28;20480;-68
2022/08/13 09:59:47;;;;;;;2.80;2.20;;;28.80;64.10;;;;;;5033356;28;20999;-67
2022/08/13 10:02:14;;;;;;;3.43;2.57;;;28.70;65.00;;;;;;5033844;28;20445;-68
2022/08/13 10:04:43;;;;;;;3.00;2.30;;;28.90;65.40;;;;;;5032993;28;20484;-68
2022/08/13 10:07:12;;;;;;;4.07;2.40;;;29.20;65.00;;;;;;5033574;28;20465;-68
2022/08/13 10:09:39;;;;;;;4.93;1.87;;;29.30;61.80;;;;;;5033577;28;20448;-68
2022/08/13 10:12:09;;;;;;;3.60;1.83;;;29.70;60.10;;;;;;5033437;28;20456;-68
2022/08/13 10:14:36;;;;;;;3.63;1.90;;;29.90;58.60;;;;;;5032903;28;20436;-67
2022/08/13 10:17:04;;;;;;;3.80;1.93;;;30.10;58.90;;;;;;5033111;28;20479;-68
2022/08/13 10:19:32;;;;;;;3.33;2.10;;;29.40;56.20;;;;;;5033170;28;21180;-68
2022/08/13 10:22:01;;;;;;;3.00;2.20;;;29.10;58.40;;;;;;5033311;28;20454;-68
2022/08/13 10:24:29;;;;;;;3.67;2.10;;;29.20;58.20;;;;;;5033013;28;20488;-67
2022/08/13 10:26:55;;;;;;;3.50;2.20;;;29.60;58.00;;;;;;5032792;28;20481;-68
2022/08/13 10:29:22;;;;;;;4.20;2.07;;;30.00;56.30;;;;;;5033305;28;20452;-68
2022/08/13 10:31:49;;;;;;;3.87;2.10;;;30.10;56.50;;;;;;5032941;28;20827;-68
2022/08/13 10:34:22;;;;;;;2.73;1.90;;;29.90;55.60;;;;;;5033042;28;20448;-68
2022/08/13 10:36:49;;;;;;;2.80;2.00;;;29.40;55.20;;;;;;5032777;28;20487;-68
2022/08/13 10:39:17;;;;;;;4.57;1.93;;;28.60;56.40;;;;;;5032978;28;20867;-68
2022/08/13 10:41:44;;;;;;;2.30;1.80;;;28.30;57.10;;;;;;5032851;28;20453;-68
2022/08/13 10:44:13;;;;;;;3.23;2.27;;;28.10;58.60;;;;;;5033348;28;20881;-67
2022/08/13 10:46:45;;;;;;;3.40;1.80;;;28.20;56.60;;;;;;5032895;28;20472;-67
2022/08/13 10:49:13;;;;;;;3.20;1.70;;;28.00;55.40;;;;;;5033089;28;20494;-68
2022/08/13 10:51:40;;;;;;;3.47;2.10;;;28.00;57.00;;;;;;5033071;28;20481;-68
2022/08/13 10:54:07;;;;;;;2.30;1.63;;;28.20;57.40;;;;;;5032774;28;20449;-68
2022/08/13 10:56:36;;;;;;;2.80;2.50;;;28.10;57.70;;;;;;5032603;28;20491;-68
2022/08/13 10:59:05;;;;;;;2.63;1.93;;;28.10;56.20;;;;;;5032421;28;20548;-68
2022/08/13 11:01:32;;;;;;;3.50;2.00;;;28.10;56.60;;;;;;5032535;28;21037;-68
2022/08/13 11:04:01;;;;;;;6.20;2.20;;;28.50;55.20;;;;;;5032404;28;20486;-68
2022/08/13 11:06:29;;;;;;;3.43;2.13;;;28.80;54.40;;;;;;5031941;28;20468;-67
2022/08/13 11:08:59;;;;;;;3.20;2.00;;;29.20;56.20;;;;;;5031805;28;20445;-68
2022/08/13 11:11:26;;;;;;;5.87;2.00;;;29.90;54.10;;;;;;5032319;28;20452;-67
2022/08/13 11:13:55;;;;;;;2.80;1.70;;;30.00;51.70;;;;;;5032274;28;21253;-68
2022/08/13 11:19:14;;;;;;;4.80;1.90;;;30.80;53.60;;;;;;5032251;28;20448;-68
2022/08/13 11:21:42;;;;;;;2.30;2.03;;;31.60;50.90;;;;;;5032336;28;20444;-68
2022/08/13 11:24:09;;;;;;;2.43;1.80;;;32.50;51.10;;;;;;5031622;28;20489;-68
2022/08/13 11:26:36;;;;;;;4.13;2.00;;;32.80;47.60;;;;;;5031754;28;20491;-68
2022/08/13 11:29:04;;;;;;;2.90;1.90;;;33.20;47.60;;;;;;5032050;28;20459;-68
2022/08/13 11:31:31;;;;;;;3.40;2.00;;;33.50;47.90;;;;;;5031724;28;20890;-68
2022/08/13 11:33:58;;;;;;;2.20;1.60;;;34.10;46.50;;;;;;5031711;28;20453;-68
2022/08/13 11:36:24;;;;;;;2.50;1.80;;;34.40;45.90;;;;;;5031123;28;20476;-68
2022/08/13 11:38:51;;;;;;;2.70;1.77;;;34.90;45.00;;;;;;5031717;28;20449;-68
2022/08/13 11:41:18;;;;;;;3.20;1.73;;;35.00;44.40;;;;;;5031936;28;20468;-68
2022/08/13 11:43:45;;;;;;;3.30;1.70;;;35.10;42.80;;;;;;5031587;28;20448;-68
2022/08/13 11:46:13;;;;;;;2.40;1.60;;;34.90;40.90;;;;;;5031112;28;20493;-68
2022/08/13 11:48:40;;;;;;;4.00;2.03;;;34.50;40.30;;;;;;5031778;28;20472;-68
2022/08/13 11:51:07;;;;;;;5.10;1.90;;;34.10;43.00;;;;;;5031526;28;20457;-68
2022/08/13 11:53:34;;;;;;;2.30;1.60;;;34.40;44.90;;;;;;5031612;28;20445;-68
2022/08/13 11:56:01;;;;;;;3.70;2.00;;;34.20;42.40;;;;;;5031183;28;20449;-67
2022/08/13 11:58:28;;;;;;;3.20;1.80;;;34.40;42.10;;;;;;5031138;28;20460;-68
2022/08/13 12:00:55;;;;;;;3.20;2.03;;;34.70;43.80;;;;;;5031276;28;20965;-68
2022/08/13 12:03:23;;;;;;;2.60;1.97;;;35.30;42.40;;;;;;5031563;28;20448;-68
2022/08/13 12:05:50;;;;;;;4.07;1.80;;;35.70;41.10;;;;;;5030733;28;20488;-65
2022/08/13 12:08:18;;;;;;;2.80;1.60;;;35.50;41.20;;;;;;5031364;28;20851;-68
2022/08/13 12:10:45;;;;;;;2.73;1.73;;;35.40;41.60;;;;;;5031261;28;20441;-69
2022/08/13 12:13:12;;;;;;;4.07;2.00;;;35.40;39.20;;;;;;5031012;28;20540;-68
2022/08/13 12:15:39;;;;;;;2.57;1.70;;;34.60;42.50;;;;;;5031058;28;20445;-68
2022/08/13 12:18:07;;;;;;;3.67;1.60;;;35.00;41.70;;;;;;5031312;28;20469;-66
2022/08/13 12:20:35;;;;;;;4.73;2.60;;;35.90;42.30;;;;;;5030091;28;20468;-66
2022/08/13 12:23:03;;;;;;;2.17;1.33;;;35.80;40.20;;;;;;5031364;28;20453;-67
2022/08/13 12:25:32;;;;;;;2.73;1.70;;;36.20;40.50;;;;;;5030542;28;20485;-66
2022/08/13 12:28:09;;;;;;;2.33;1.67;;;36.40;39.20;;;;;;5030707;28;20472;-68
2022/08/13 12:30:36;;;;;;;2.40;2.00;;;36.60;36.60;;;;;;5031148;28;20436;-68
2022/08/13 12:33:03;;;;;;;3.13;1.43;;;35.70;37.20;;;;;;5030960;28;20444;-68
2022/08/13 12:35:30;;;;;;;3.30;1.70;;;35.10;40.40;;;;;;5030505;28;20927;-68
2022/08/13 12:37:58;;;;;;;2.43;1.80;;;35.60;40.30;;;;;;5030685;28;20464;-68
2022/08/13 12:40:25;;;;;;;2.00;1.50;;;35.90;36.80;;;;;;5030539;28;20941;-68
2022/08/13 12:42:52;;;;;;;2.20;1.43;;;36.00;38.00;;;;;;5030817;28;20449;-68
2022/08/13 12:45:19;;;;;;;2.87;1.80;;;35.70;40.50;;;;;;5030245;28;20821;-68
2022/08/13 12:47:46;;;;;;;2.90;1.67;;;35.40;38.80;;;;;;5030891;28;20478;-68
2022/08/13 12:50:13;;;;;;;3.00;1.70;;;34.20;38.70;;;;;;5030488;28;20456;-68
2022/08/13 12:52:39;;;;;;;5.30;2.33;;;34.30;41.20;;;;;;5030490;28;20528;-68
2022/08/13 12:55:09;;;;;;;2.10;1.60;;;34.10;41.30;;;;;;5029897;28;20451;-67
2022/08/13 12:57:37;;;;;;;2.30;1.57;;;35.00;41.90;;;;;;5030359;28;20476;-67
2022/08/13 13:00:08;;;;;;;2.30;1.77;;;35.70;39.20;;;;;;5030536;28;20459;-67
2022/08/13 13:02:35;;;;;;;3.03;1.70;;;36.10;37.40;;;;;;5030321;28;20457;-67
2022/08/13 13:05:02;;;;;;;2.70;2.07;;;36.20;36.90;;;;;;5029820;28;20485;-68
2022/08/13 13:07:29;;;;;;;4.43;1.93;;;36.20;37.40;;;;;;5030176;28;20476;-68
2022/08/13 13:09:58;;;;;;;3.40;1.90;;;35.30;38.30;;;;;;5030445;28;20453;-68
2022/08/13 13:12:26;;;;;;;2.30;1.63;;;35.40;38.50;;;;;;5030443;28;20445;-68
2022/08/13 13:14:53;;;;;;;5.10;1.87;;;36.20;36.90;;;;;;5029741;28;20464;-68